This is the latest recevied weather packets stored in our database for station/object OM3WYM-13. If no packets are shown the sender has not sent any weather packets the latest 10 day(s).
| Time | Temp. | Humidity | Pressure | Rain* | Wind** | Luminosity | Snow |
|---|---|---|---|---|---|---|---|
| 1777378208 | 16.11° C | 28% | 1020.4 hPa | - | - | - | - |
| 1777377008 | 16.11° C | 28% | 1020.4 hPa | - | - | - | - |
| 1777376408 | 15° C | 29% | 1020.6 hPa | - | - | - | - |
| 1777374608 | 13.89° C | 31% | 1020.9 hPa | - | - | - | - |
| 1777373408 | 12.78° C | 33% | 1021.1 hPa | - | - | - | - |
| 1777372208 | 12.78° C | 34% | 1021 hPa | - | - | - | - |
| 1777371608 | 12.22° C | 35% | 1021.2 hPa | - | - | - | - |
| 1777371008 | 12.78° C | 34% | 1020.9 hPa | - | - | - | - |
| 1777370408 | 12.22° C | 35% | 1021.1 hPa | - | - | - | - |
| 1777369808 | 12.22° C | 35% | 1021.2 hPa | - | - | - | - |
| 1777369208 | 12.22° C | 35% | 1021.5 hPa | - | - | - | - |
| 1777368608 | 12.22° C | 35% | 1021.3 hPa | - | - | - | - |
| 1777367408 | 12.22° C | 36% | 1021.2 hPa | - | - | - | - |
| 1777366808 | 11.67° C | 36% | 1021.2 hPa | - | - | - | - |
| 1777366208 | 11.67° C | 36% | 1021.2 hPa | - | - | - | - |
| 1777365608 | 11.67° C | 36% | 1021.2 hPa | - | - | - | - |
| 1777365008 | 11.67° C | 37% | 1021 hPa | - | - | - | - |
| 1777364408 | 12.22° C | 37% | 1020.9 hPa | - | - | - | - |
| 1777363808 | 11.67° C | 38% | 1020.9 hPa | - | - | - | - |
| 1777363208 | 11.67° C | 39% | 1021 hPa | - | - | - | - |
| 1777362608 | 11.11° C | 40% | 1021 hPa | - | - | - | - |
| 1777362008 | 10.56° C | 42% | 1021.3 hPa | - | - | - | - |
| 1777361408 | 10° C | 46% | 1021.2 hPa | - | - | - | - |
| 1777360808 | 10° C | 45% | 1021.3 hPa | - | - | - | - |
| 1777360208 | 9.44° C | 47% | 1021.5 hPa | - | - | - | - |
* Rain since midnight (hover to see other rain measurements)
** Current wind speed in m/s (hover to see current wind gust speed)